Time;durP1;ratioP1;P1;durP2;ratioP2;P2;SDS_P1;SDS_P2;PMS_P1;PMS_P2;Temp;Humidity;BMP_temperature;BMP_pressure;BME280_temperature;BME280_humidity;BME280_pressure;Samples;Min_cycle;Max_cycle;Signal;HPM_P1;HPM_P2
2022/12/11 00:00:20;;;;;;;39.03;17.83;;;3.40;97.20;;;;;;5011925;28;20033;-74
2022/12/11 00:02:45;;;;;;;39.95;17.30;;;3.40;97.10;;;;;;5011836;28;20045;-72
2022/12/11 00:05:11;;;;;;;37.00;17.05;;;3.30;97.00;;;;;;5011746;28;20026;-72
2022/12/11 00:07:37;;;;;;;37.40;17.25;;;3.30;97.20;;;;;;5012354;28;20103;-73
2022/12/11 00:10:03;;;;;;;42.03;18.00;;;3.30;97.10;;;;;;5010679;28;20038;-73
2022/12/11 00:12:30;;;;;;;38.70;17.25;;;3.30;97.10;;;;;;5011660;28;20527;-73
2022/12/11 00:14:55;;;;;;;42.60;17.45;;;3.10;97.30;;;;;;5011532;28;20422;-72
2022/12/11 00:17:21;;;;;;;41.28;17.25;;;3.10;97.30;;;;;;5011004;28;20519;-73
2022/12/11 00:19:46;;;;;;;41.10;18.33;;;3.00;97.50;;;;;;5012611;28;20089;-74
2022/12/11 00:22:12;;;;;;;42.20;18.02;;;3.00;97.50;;;;;;5011991;28;20042;-72
2022/12/11 00:24:38;;;;;;;36.65;16.50;;;2.90;97.50;;;;;;5010439;28;20054;-73
2022/12/11 00:27:03;;;;;;;37.03;17.08;;;3.00;97.70;;;;;;5012941;28;20029;-73
2022/12/11 00:29:29;;;;;;;43.95;17.80;;;3.00;97.70;;;;;;5012782;28;20034;-73
2022/12/11 00:31:55;;;;;;;40.92;17.60;;;3.10;97.50;;;;;;5012047;28;20022;-73
2022/12/11 00:34:21;;;;;;;44.67;18.52;;;3.10;97.50;;;;;;5011719;28;20041;-74
2022/12/11 00:36:46;;;;;;;44.78;18.27;;;3.00;97.50;;;;;;5011711;28;20105;-73
2022/12/11 00:39:12;;;;;;;38.03;17.20;;;3.10;97.40;;;;;;5011160;28;20030;-73
2022/12/11 00:41:38;;;;;;;42.30;19.67;;;3.10;97.10;;;;;;5011927;28;20037;-73
2022/12/11 00:44:03;;;;;;;42.20;19.17;;;3.10;97.00;;;;;;5011253;28;20053;-72
2022/12/11 00:46:29;;;;;;;40.20;17.63;;;3.20;97.00;;;;;;5011921;28;20026;-73
2022/12/11 00:48:55;;;;;;;43.58;18.52;;;3.20;96.80;;;;;;5010924;28;20034;-73
2022/12/11 00:51:21;;;;;;;35.92;15.88;;;3.30;96.60;;;;;;5010665;28;20026;-72
2022/12/11 00:53:46;;;;;;;34.92;15.88;;;3.20;96.70;;;;;;5011631;28;20116;-73
2022/12/11 00:56:18;;;;;;;33.15;15.48;;;3.20;96.50;;;;;;5016248;28;20026;-73
2022/12/11 00:58:45;;;;;;;35.85;15.13;;;3.20;96.40;;;;;;5011396;28;20336;-73
2022/12/11 01:01:18;;;;;;;37.22;16.30;;;3.20;96.40;;;;;;5015004;28;20103;-72
2022/12/11 01:03:44;;;;;;;34.28;16.20;;;3.20;96.40;;;;;;5014905;28;20053;-73
2022/12/11 01:06:15;;;;;;;39.70;17.00;;;3.10;96.90;;;;;;5011439;28;20034;-72
2022/12/11 01:08:41;;;;;;;38.25;17.58;;;3.10;97.00;;;;;;5019020;28;20488;-73
2022/12/11 01:11:11;;;;;;;34.40;16.45;;;3.10;97.00;;;;;;5020059;28;20034;-72
2022/12/11 01:13:37;;;;;;;36.58;16.10;;;3.20;96.90;;;;;;5021235;28;20110;-73
2022/12/11 01:16:14;;;;;;;39.25;17.00;;;3.20;96.90;;;;;;5016121;28;20045;-73
2022/12/11 01:18:41;;;;;;;34.23;15.67;;;3.20;96.80;;;;;;5018164;28;20037;-72
2022/12/11 01:21:09;;;;;;;37.92;16.90;;;3.10;96.80;;;;;;5017466;28;20037;-72
2022/12/11 01:23:35;;;;;;;33.78;14.93;;;3.20;97.00;;;;;;5013698;28;20026;-73
2022/12/11 01:26:10;;;;;;;32.00;16.20;;;3.10;96.80;;;;;;5012158;28;20018;-73
2022/12/11 01:28:36;;;;;;;37.45;15.85;;;3.10;96.70;;;;;;5011294;28;20029;-72
2022/12/11 01:31:10;;;;;;;33.03;15.80;;;3.20;96.70;;;;;;5010732;28;20463;-73
2022/12/11 01:33:36;;;;;;;32.00;15.25;;;3.20;96.40;;;;;;5011205;28;20034;-73
2022/12/11 01:36:13;;;;;;;34.55;14.65;;;3.10;96.30;;;;;;5010774;28;20026;-72
2022/12/11 01:38:39;;;;;;;30.17;15.02;;;3.10;96.30;;;;;;5011632;28;20191;-73
2022/12/11 01:41:06;;;;;;;31.23;14.63;;;3.10;96.30;;;;;;5015574;28;20490;-73
2022/12/11 01:43:33;;;;;;;30.77;15.20;;;3.10;96.20;;;;;;5014592;28;20030;-70
2022/12/11 01:45:58;;;;;;;32.17;15.05;;;3.10;96.10;;;;;;5013575;28;20029;-72
2022/12/11 01:48:31;;;;;;;34.42;14.68;;;3.10;96.00;;;;;;5013342;28;20365;-73
2022/12/11 01:51:00;;;;;;;30.80;14.43;;;3.00;96.00;;;;;;5014267;28;20140;-73
2022/12/11 01:53:37;;;;;;;30.83;13.48;;;3.00;96.00;;;;;;5013907;28;20026;-73
2022/12/11 01:56:05;;;;;;;29.00;13.13;;;3.10;96.00;;;;;;5013157;28;20037;-73
2022/12/11 01:58:35;;;;;;;31.63;15.07;;;3.20;95.80;;;;;;5013605;28;20061;-73
2022/12/11 02:01:02;;;;;;;26.48;12.95;;;3.00;95.60;;;;;;5013783;28;20041;-74
2022/12/11 02:03:27;;;;;;;30.50;13.43;;;3.00;95.70;;;;;;5012889;28;20120;-73
2022/12/11 02:05:53;;;;;;;29.23;14.30;;;3.10;95.70;;;;;;5014539;28;20145;-72
2022/12/11 02:08:20;;;;;;;34.15;14.38;;;3.00;95.70;;;;;;5014018;28;24920;-72
2022/12/11 02:10:57;;;;;;;30.33;14.23;;;3.00;95.70;;;;;;5014804;28;20029;-74
2022/12/11 02:13:43;;;;;;;31.00;14.40;;;2.90;95.90;;;;;;5013217;28;20050;-73
2022/12/11 02:16:21;;;;;;;32.08;14.52;;;2.90;95.90;;;;;;5014302;28;20113;-72
2022/12/11 02:18:50;;;;;;;33.80;14.65;;;2.90;96.00;;;;;;5014000;28;20368;-73
2022/12/11 02:21:23;;;;;;;30.05;13.50;;;2.80;95.90;;;;;;5013763;28;20367;-72
2022/12/11 02:24:04;;;;;;;29.38;13.68;;;2.80;96.00;;;;;;5014008;28;20091;-72
2022/12/11 02:26:52;;;;;;;28.83;13.60;;;2.90;96.10;;;;;;5013798;28;20099;-73
2022/12/11 02:29:44;;;;;;;31.40;14.43;;;2.90;95.90;;;;;;5013837;28;20037;-73
2022/12/11 02:32:25;;;;;;;33.33;15.27;;;3.00;95.80;;;;;;5012159;28;20123;-74
2022/12/11 02:35:04;;;;;;;30.08;14.02;;;3.00;95.70;;;;;;5013993;28;20014;-73
2022/12/11 02:37:32;;;;;;;31.40;13.82;;;3.00;95.70;;;;;;5013574;28;20088;-72
2022/12/11 02:39:58;;;;;;;30.80;13.30;;;2.90;95.70;;;;;;5012136;28;20460;-72
2022/12/11 02:42:29;;;;;;;27.75;13.13;;;2.90;95.60;;;;;;5013382;28;20516;-71
2022/12/11 02:44:57;;;;;;;25.10;12.48;;;2.90;95.70;;;;;;5013374;28;20117;-72
2022/12/11 02:47:26;;;;;;;25.80;12.27;;;3.00;95.30;;;;;;5013318;28;20072;-72
2022/12/11 02:49:54;;;;;;;31.20;13.20;;;2.90;95.50;;;;;;5012468;28;20026;-73
2022/12/11 02:52:22;;;;;;;27.38;13.70;;;2.80;95.60;;;;;;5013342;28;20116;-72
2022/12/11 02:54:51;;;;;;;27.15;13.27;;;2.80;95.90;;;;;;5012024;28;20022;-73
2022/12/11 02:57:32;;;;;;;33.95;14.30;;;2.80;96.00;;;;;;5013528;28;20052;-73
2022/12/11 02:59:58;;;;;;;31.30;13.55;;;3.00;95.90;;;;;;5011823;28;20030;-72
2022/12/11 03:02:23;;;;;;;30.35;12.90;;;3.00;95.80;;;;;;5013099;28;20036;-72
2022/12/11 03:04:50;;;;;;;34.17;12.68;;;3.00;95.70;;;;;;5014302;28;20112;-73
2022/12/11 03:07:24;;;;;;;29.02;12.82;;;2.90;95.40;;;;;;5012874;28;20096;-72
2022/12/11 03:09:50;;;;;;;22.90;11.65;;;3.00;95.60;;;;;;5012695;28;20109;-73
2022/12/11 03:12:23;;;;;;;23.23;11.70;;;3.00;95.50;;;;;;5012597;28;20053;-72
2022/12/11 03:14:49;;;;;;;27.48;12.32;;;2.90;95.40;;;;;;5012925;28;20026;-73
2022/12/11 03:17:20;;;;;;;27.33;12.32;;;2.90;95.40;;;;;;5011582;28;20471;-73
2022/12/11 03:19:51;;;;;;;25.58;12.27;;;2.90;95.30;;;;;;5012880;28;20037;-71
2022/12/11 03:22:23;;;;;;;26.52;12.35;;;2.90;95.30;;;;;;5012742;28;20022;-72
2022/12/11 03:24:59;;;;;;;22.85;12.00;;;2.90;95.40;;;;;;5011439;28;20037;-72
2022/12/11 03:27:35;;;;;;;27.85;13.07;;;2.80;95.40;;;;;;5012528;28;20026;-71
2022/12/11 03:30:06;;;;;;;29.65;12.52;;;2.90;95.30;;;;;;5012363;28;20396;-72
2022/12/11 03:32:42;;;;;;;31.88;15.02;;;2.80;95.30;;;;;;5011565;28;20437;-73
2022/12/11 03:35:15;;;;;;;27.80;12.85;;;2.70;95.30;;;;;;5012085;28;20053;-73
2022/12/11 03:37:42;;;;;;;28.77;12.80;;;2.70;95.50;;;;;;5012728;28;20053;-73
2022/12/11 03:40:14;;;;;;;29.38;12.10;;;2.70;95.70;;;;;;5012151;28;20034;-73
2022/12/11 03:42:52;;;;;;;27.45;11.75;;;2.80;95.60;;;;;;5012064;28;20480;-74
2022/12/11 03:45:20;;;;;;;28.25;12.73;;;2.80;95.50;;;;;;5011927;28;20099;-72
2022/12/11 03:47:47;;;;;;;28.23;12.40;;;2.90;95.40;;;;;;5012028;28;20065;-72
2022/12/11 03:50:16;;;;;;;28.75;13.23;;;2.90;95.30;;;;;;5012076;28;20054;-71
2022/12/11 03:52:45;;;;;;;29.52;14.48;;;2.80;95.30;;;;;;5012345;28;20237;-73
2022/12/11 03:55:13;;;;;;;29.60;13.27;;;2.80;95.40;;;;;;5012020;28;20061;-73
2022/12/11 03:57:39;;;;;;;;;;;2.80;95.40;;;;;;5011306;28;20383;-72
2022/12/11 04:00:08;;;;;;;24.27;11.73;;;2.70;95.30;;;;;;5010764;28;20125;-72
2022/12/11 04:02:34;;;;;;;24.73;11.73;;;2.70;95.40;;;;;;5011507;28;20030;-73
2022/12/11 04:05:00;;;;;;;29.63;12.77;;;2.70;95.40;;;;;;5011643;28;20376;-74
2022/12/11 04:07:25;;;;;;;31.90;13.98;;;2.70;95.40;;;;;;5011154;28;20030;-74
2022/12/11 04:09:51;;;;;;;29.48;13.50;;;2.70;95.40;;;;;;5011617;28;20034;-74
2022/12/11 04:12:17;;;;;;;31.08;13.90;;;2.70;95.40;;;;;;5011379;28;20049;-74
2022/12/11 04:26:12;;;;;;;29.08;13.30;;;2.80;95.10;;;;;;5011888;28;20423;-74
2022/12/11 04:28:39;;;;;;;28.92;13.32;;;2.80;95.20;;;;;;5011474;28;20472;-75
2022/12/11 04:31:05;;;;;;;30.95;14.23;;;2.90;95.20;;;;;;5011438;28;20554;-75
2022/12/11 04:33:31;;;;;;;29.88;13.75;;;2.70;95.00;;;;;;5011262;28;20532;-74
2022/12/11 04:35:58;;;;;;;32.88;14.55;;;2.80;95.30;;;;;;5011403;28;20125;-74
2022/12/11 04:38:24;;;;;;;30.55;13.27;;;2.70;95.30;;;;;;5011270;28;20026;-74
2022/12/11 04:40:57;;;;;;;31.42;14.00;;;2.80;95.50;;;;;;5011671;28;20037;-73
2022/12/11 04:43:23;;;;;;;34.35;14.52;;;2.80;95.30;;;;;;5010186;28;20033;-74
2022/12/11 04:45:48;;;;;;;29.60;13.02;;;2.70;95.10;;;;;;5010964;28;20029;-73
2022/12/11 04:48:14;;;;;;;27.08;12.98;;;2.70;95.30;;;;;;5011049;28;20050;-74
2022/12/11 04:50:39;;;;;;;28.13;14.30;;;2.60;95.30;;;;;;5010060;28;20083;-74
2022/12/11 04:53:05;;;;;;;32.33;14.50;;;2.60;95.40;;;;;;5010067;28;20053;-73
2022/12/11 04:55:31;;;;;;;30.23;14.05;;;2.70;95.40;;;;;;5011560;28;20301;-73
2022/12/11 04:57:56;;;;;;;29.63;14.43;;;2.60;95.10;;;;;;5011083;28;20038;-73
2022/12/11 05:00:22;;;;;;;29.80;13.65;;;2.70;95.20;;;;;;5011216;28;20034;-73
2022/12/11 05:02:48;;;;;;;27.75;13.25;;;2.50;95.10;;;;;;5010868;28;20034;-72
2022/12/11 05:05:13;;;;;;;30.30;14.05;;;2.50;95.20;;;;;;5010805;28;20092;-74
2022/12/11 05:07:40;;;;;;;28.50;13.77;;;2.50;95.40;;;;;;5011490;28;20022;-74
2022/12/11 05:10:07;;;;;;;36.10;14.87;;;2.60;95.30;;;;;;5010831;28;20026;-74
2022/12/11 05:12:32;;;;;;;33.72;13.95;;;2.60;95.20;;;;;;5010652;28;20042;-73
2022/12/11 05:14:58;;;;;;;32.90;14.27;;;2.60;95.20;;;;;;5014401;28;20117;-73
2022/12/11 05:17:24;;;;;;;30.63;14.15;;;2.60;95.20;;;;;;5014624;28;20440;-74
2022/12/11 05:19:50;;;;;;;36.90;14.82;;;2.60;95.00;;;;;;5015516;28;20026;-73
2022/12/11 05:22:17;;;;;;;30.42;15.38;;;2.50;95.10;;;;;;5014805;28;20495;-72
2022/12/11 05:24:43;;;;;;;31.73;14.63;;;2.50;95.10;;;;;;5014670;28;20030;-74
2022/12/11 05:27:09;;;;;;;33.60;15.60;;;2.50;95.30;;;;;;5014773;28;20034;-73
2022/12/11 05:29:35;;;;;;;31.60;14.35;;;2.60;95.40;;;;;;5014693;28;20089;-73
2022/12/11 05:32:01;;;;;;;36.10;15.20;;;2.60;95.20;;;;;;5014949;28;20129;-74
2022/12/11 05:34:27;;;;;;;30.27;14.32;;;2.70;95.20;;;;;;5015068;28;20515;-73
2022/12/11 05:36:53;;;;;;;37.38;15.73;;;2.70;95.20;;;;;;5014644;28;20026;-71
2022/12/11 05:39:19;;;;;;;32.28;14.73;;;2.70;95.00;;;;;;5014452;28;20394;-74
2022/12/11 05:41:44;;;;;;;31.55;14.00;;;2.80;95.00;;;;;;5014375;28;20045;-73
2022/12/11 05:44:11;;;;;;;35.38;15.07;;;2.90;95.00;;;;;;5014461;28;20068;-73
2022/12/11 05:46:38;;;;;;;33.90;14.45;;;2.70;94.80;;;;;;5014715;28;20030;-74
2022/12/11 05:49:04;;;;;;;30.00;14.25;;;2.70;95.10;;;;;;5014194;28;20468;-73
2022/12/11 05:51:33;;;;;;;32.22;15.15;;;2.80;95.10;;;;;;5014125;28;20034;-73
2022/12/11 05:53:59;;;;;;;32.10;14.15;;;2.60;94.90;;;;;;5014218;28;20033;-73
2022/12/11 05:56:30;;;;;;;35.08;15.48;;;2.80;95.20;;;;;;5013077;28;20026;-73
2022/12/11 05:58:57;;;;;;;30.83;15.07;;;2.70;95.10;;;;;;5013737;28;20033;-73
2022/12/11 06:01:51;;;;;;;27.73;14.20;;;2.60;95.00;;;;;;5014205;28;20040;-73
2022/12/11 06:04:16;;;;;;;36.83;15.68;;;2.60;94.90;;;;;;5014048;28;20030;-74
2022/12/11 06:06:45;;;;;;;27.75;13.93;;;2.60;95.20;;;;;;5014082;28;20096;-73
2022/12/11 06:09:13;;;;;;;28.30;13.70;;;2.60;95.10;;;;;;5012853;28;20033;-73
2022/12/11 06:11:39;;;;;;;29.58;13.45;;;2.60;95.10;;;;;;5013656;28;20092;-72
2022/12/11 06:14:05;;;;;;;33.55;15.63;;;2.70;95.20;;;;;;5013803;28;20093;-73
2022/12/11 06:16:31;;;;;;;35.15;15.02;;;2.70;95.20;;;;;;5014127;28;20037;-74
2022/12/11 06:18:57;;;;;;;33.08;14.88;;;2.60;94.90;;;;;;5013890;28;20121;-74
2022/12/11 06:21:25;;;;;;;36.78;15.45;;;2.60;94.90;;;;;;5013842;28;20591;-73
2022/12/11 06:23:53;;;;;;;29.35;14.50;;;2.50;94.80;;;;;;5013689;28;20029;-74
2022/12/11 06:26:20;;;;;;;33.53;14.43;;;2.60;95.00;;;;;;5013714;28;20045;-72
2022/12/11 06:28:46;;;;;;;31.77;14.60;;;2.60;95.10;;;;;;5013968;28;20054;-73
2022/12/11 06:31:12;;;;;;;33.35;15.50;;;2.60;94.90;;;;;;5013547;28;20030;-73
2022/12/11 06:33:38;;;;;;;35.22;14.98;;;2.50;94.90;;;;;;5013418;28;20049;-72
2022/12/11 06:36:10;;;;;;;30.45;14.50;;;2.60;95.20;;;;;;5013458;28;20440;-72
2022/12/11 06:38:35;;;;;;;30.30;14.07;;;2.50;95.10;;;;;;5013362;28;20034;-73
2022/12/11 06:41:06;;;;;;;31.25;14.90;;;2.70;95.00;;;;;;5013420;28;20514;-72
2022/12/11 06:43:33;;;;;;;34.67;14.75;;;2.70;94.90;;;;;;5013728;28;20022;-73
2022/12/11 06:46:02;;;;;;;33.15;14.85;;;2.60;94.80;;;;;;5013263;28;20041;-73
2022/12/11 06:48:28;;;;;;;30.20;14.05;;;2.50;94.90;;;;;;5013228;28;20034;-72
2022/12/11 06:50:54;;;;;;;30.77;14.80;;;2.60;95.10;;;;;;5013088;28;20542;-72
2022/12/11 06:53:19;;;;;;;33.58;14.48;;;2.60;95.10;;;;;;5013112;28;20113;-72
2022/12/11 06:55:45;;;;;;;30.10;14.20;;;2.70;94.90;;;;;;5013497;28;20281;-73
2022/12/11 06:58:11;;;;;;;29.67;14.27;;;2.70;94.80;;;;;;5012916;28;20034;-72
2022/12/11 07:00:37;;;;;;;32.13;14.60;;;2.70;94.70;;;;;;5012863;28;20475;-73
2022/12/11 07:03:04;;;;;;;38.22;14.98;;;2.70;94.70;;;;;;5012829;28;20032;-72
2022/12/11 07:05:31;;;;;;;32.38;14.68;;;2.60;94.80;;;;;;5012740;28;20041;-73
2022/12/11 07:07:57;;;;;;;33.70;14.63;;;2.60;94.90;;;;;;5012834;28;20022;-73
2022/12/11 07:10:23;;;;;;;31.33;14.48;;;2.70;95.00;;;;;;5013091;28;20160;-72
2022/12/11 07:12:51;;;;;;;37.67;14.27;;;2.70;94.90;;;;;;5012451;28;20068;-73
2022/12/11 07:15:16;;;;;;;29.65;13.70;;;2.60;94.90;;;;;;5011488;28;20034;-73
2022/12/11 07:17:42;;;;;;;28.70;14.38;;;2.60;95.00;;;;;;5011289;28;20045;-72
2022/12/11 07:20:08;;;;;;;32.15;15.20;;;2.70;95.10;;;;;;5012411;28;20025;-72
2022/12/11 07:22:34;;;;;;;31.33;14.60;;;2.70;94.90;;;;;;5012945;28;20436;-73
2022/12/11 07:25:00;;;;;;;30.83;13.90;;;2.80;94.90;;;;;;5012520;28;20603;-73
2022/12/11 07:27:26;;;;;;;28.50;14.35;;;2.70;94.80;;;;;;5012538;28;20037;-72
2022/12/11 07:29:51;;;;;;;33.38;16.02;;;2.70;94.90;;;;;;5012400;28;20038;-73
2022/12/11 07:32:17;;;;;;;33.80;15.63;;;2.70;94.80;;;;;;5012081;28;20030;-74
2022/12/11 07:34:43;;;;;;;29.48;14.20;;;2.70;94.90;;;;;;5012554;28;20471;-72
2022/12/11 07:37:08;;;;;;;29.52;14.05;;;2.80;94.80;;;;;;5011563;28;20360;-73
2022/12/11 07:39:34;;;;;;;28.75;14.57;;;2.80;94.70;;;;;;5012310;28;20022;-72
2022/12/11 07:41:59;;;;;;;30.90;14.52;;;2.70;94.80;;;;;;5011143;28;20057;-73
2022/12/11 07:44:25;;;;;;;30.40;15.88;;;2.70;94.70;;;;;;5012611;28;20464;-73
2022/12/11 07:46:51;;;;;;;30.33;14.75;;;2.70;94.80;;;;;;5013121;28;20483;-73
2022/12/11 07:49:16;;;;;;;33.67;15.32;;;2.70;94.90;;;;;;5012135;28;20048;-74
2022/12/11 07:51:42;;;;;;;38.28;16.83;;;2.70;94.80;;;;;;5012515;28;20040;-72
2022/12/11 07:54:15;;;;;;;33.53;16.08;;;2.60;94.80;;;;;;5012161;28;20091;-74
2022/12/11 07:56:42;;;;;;;46.22;16.52;;;2.70;94.90;;;;;;5010911;28;20365;-74
2022/12/11 07:59:07;;;;;;;33.17;15.88;;;2.70;95.00;;;;;;5011852;28;20448;-74
2022/12/11 08:01:35;;;;;;;35.42;16.33;;;2.70;94.90;;;;;;5012307;28;20092;-77
2022/12/11 08:04:02;;;;;;;34.42;15.48;;;2.70;95.00;;;;;;5010629;28;20112;-73
2022/12/11 08:06:33;;;;;;;36.27;16.13;;;2.60;95.00;;;;;;5011606;28;20460;-72
2022/12/11 08:09:00;;;;;;;36.47;15.65;;;2.70;95.10;;;;;;5011639;28;20268;-77
2022/12/11 08:11:26;;;;;;;34.20;16.60;;;2.70;95.10;;;;;;5011589;28;20056;-73
2022/12/11 08:13:52;;;;;;;40.88;18.00;;;2.70;95.00;;;;;;5012010;28;20133;-71
2022/12/11 08:16:18;;;;;;;40.40;16.90;;;2.70;95.10;;;;;;5011961;28;20172;-74
2022/12/11 08:18:46;;;;;;;33.58;15.43;;;2.60;95.00;;;;;;5011706;28;20125;-73
2022/12/11 08:21:17;;;;;;;35.97;16.13;;;2.60;94.80;;;;;;5011665;28;20038;-73
2022/12/11 08:23:43;;;;;;;34.55;15.73;;;2.70;95.10;;;;;;5011635;28;20053;-74
2022/12/11 08:26:16;;;;;;;33.97;15.77;;;2.80;94.90;;;;;;5011213;28;20029;-74
2022/12/11 08:28:42;;;;;;;37.00;15.88;;;2.80;94.90;;;;;;5011729;28;20024;-73
2022/12/11 08:31:10;;;;;;;33.40;15.07;;;2.80;94.80;;;;;;5011279;28;20030;-73
2022/12/11 08:33:37;;;;;;;38.72;16.27;;;2.80;94.70;;;;;;5011160;28;20030;-73
2022/12/11 08:36:05;;;;;;;37.50;16.17;;;2.80;94.60;;;;;;5011240;28;20018;-74
2022/12/11 08:38:31;;;;;;;36.55;15.70;;;2.80;94.60;;;;;;5011592;28;20669;-73
2022/12/11 08:40:57;;;;;;;37.58;15.90;;;2.70;94.60;;;;;;5011830;28;20026;-72
2022/12/11 08:43:23;;;;;;;35.67;16.20;;;2.80;94.60;;;;;;5011599;28;20456;-75
2022/12/11 08:45:49;;;;;;;41.38;18.50;;;2.70;94.80;;;;;;5011248;28;20444;-76
2022/12/11 08:48:15;;;;;;;38.75;17.50;;;2.70;94.80;;;;;;5011401;28;20049;-75
2022/12/11 08:50:41;;;;;;;43.80;17.98;;;2.70;95.10;;;;;;5011219;28;20045;-74
2022/12/11 08:53:06;;;;;;;50.10;20.42;;;2.70;95.10;;;;;;5011401;28;20037;-74
2022/12/11 08:55:32;;;;;;;55.65;18.98;;;2.70;94.90;;;;;;5010675;28;20413;-74
2022/12/11 08:57:58;;;;;;;32.33;14.65;;;2.70;94.80;;;;;;5011114;28;20060;-73
2022/12/11 09:00:24;;;;;;;38.63;15.68;;;2.60;94.60;;;;;;5011103;28;20125;-74
2022/12/11 09:02:50;;;;;;;38.15;14.57;;;2.50;94.50;;;;;;5011104;28;20029;-74
2022/12/11 09:05:16;;;;;;;29.55;14.63;;;2.60;94.70;;;;;;5010020;28;20444;-74
2022/12/11 09:07:42;;;;;;;36.20;15.73;;;2.60;94.80;;;;;;5011498;28;20022;-74
2022/12/11 09:10:08;;;;;;;38.40;15.52;;;2.60;94.70;;;;;;5010898;28;20030;-74
2022/12/11 09:12:35;;;;;;;37.05;16.08;;;2.50;94.70;;;;;;5009683;28;20464;-75
2022/12/11 09:15:00;;;;;;;37.50;15.55;;;2.40;94.80;;;;;;5009705;28;20054;-74
2022/12/11 09:17:26;;;;;;;36.92;14.98;;;2.40;94.90;;;;;;5023441;28;20034;-74
2022/12/11 09:19:51;;;;;;;39.00;16.02;;;2.50;95.10;;;;;;5030301;28;20083;-74
2022/12/11 09:22:17;;;;;;;43.65;18.20;;;2.60;95.10;;;;;;5030723;28;20025;-73
2022/12/11 09:24:43;;;;;;;46.42;20.85;;;2.70;95.10;;;;;;5030832;28;20021;-71
2022/12/11 09:27:09;;;;;;;44.28;16.00;;;2.70;94.60;;;;;;5029557;28;20033;-74
2022/12/11 09:29:34;;;;;;;29.05;14.25;;;2.70;94.70;;;;;;5030913;28;20034;-75
2022/12/11 09:32:00;;;;;;;35.90;14.60;;;2.80;94.70;;;;;;5030405;28;20030;-74
2022/12/11 09:34:26;;;;;;;41.90;15.75;;;2.70;94.50;;;;;;5031205;28;20024;-73
2022/12/11 09:36:51;;;;;;;34.55;14.13;;;2.70;94.80;;;;;;5029617;28;20475;-77
2022/12/11 09:39:17;;;;;;;35.20;14.68;;;2.80;94.70;;;;;;5029308;28;20041;-75
2022/12/11 09:41:55;;;;;;;38.13;14.88;;;2.70;94.40;;;;;;5030850;28;20054;-77
2022/12/11 09:44:52;;;;;;;36.28;14.07;;;2.70;94.60;;;;;;5029354;28;20029;-76
2022/12/11 09:47:33;;;;;;;33.17;14.68;;;2.70;94.50;;;;;;5025682;28;20225;-76
2022/12/11 09:50:05;;;;;;;27.55;12.52;;;2.70;94.50;;;;;;5029957;28;20025;-77
2022/12/11 09:52:36;;;;;;;28.45;12.07;;;2.70;94.30;;;;;;5031031;28;20052;-82
2022/12/11 09:55:13;;;;;;;32.47;13.15;;;2.50;94.70;;;;;;5030958;28;20363;-75
2022/12/11 09:58:13;;;;;;;37.58;13.35;;;2.50;94.80;;;;;;5030676;28;20041;-76
2022/12/11 10:00:45;;;;;;;34.55;13.20;;;2.60;95.00;;;;;;5033050;28;20033;-75
2022/12/11 10:03:34;;;;;;;30.10;12.88;;;2.80;94.90;;;;;;5033941;28;20038;-74
2022/12/11 10:06:45;;;;;;;28.20;12.23;;;2.70;94.60;;;;;;5032786;28;20490;-73
2022/12/11 10:09:32;;;;;;;26.30;11.45;;;2.60;94.30;;;;;;5025210;28;20490;-76
2022/12/11 10:12:10;;;;;;;29.50;12.05;;;2.60;94.30;;;;;;5033345;28;20098;-73
2022/12/11 10:15:02;;;;;;;28.20;11.65;;;2.60;94.30;;;;;;5033597;28;20131;-75
2022/12/11 10:17:32;;;;;;;27.30;12.70;;;2.60;94.40;;;;;;5032243;28;20044;-77
2022/12/11 10:20:25;;;;;;;34.03;13.95;;;2.60;94.60;;;;;;5032946;28;20257;-76
2022/12/11 10:22:52;;;;;;;31.23;13.60;;;2.70;94.60;;;;;;5033419;28;20044;-76
2022/12/11 10:25:23;;;;;;;32.13;13.10;;;2.90;94.30;;;;;;5029756;28;20345;-76
2022/12/11 10:27:49;;;;;;;31.10;13.05;;;2.90;94.30;;;;;;5033523;28;20111;-77
2022/12/11 10:30:22;;;;;;;27.88;11.75;;;2.90;94.10;;;;;;5033427;28;20522;-77
2022/12/11 10:32:52;;;;;;;30.17;13.10;;;2.80;94.00;;;;;;5033681;28;20036;-76
2022/12/11 10:35:38;;;;;;;32.00;13.05;;;2.90;94.30;;;;;;5033313;28;20348;-71
2022/12/11 10:38:18;;;;;;;30.77;12.70;;;2.80;94.30;;;;;;5033203;28;20021;-79
2022/12/11 10:40:51;;;;;;;35.08;13.05;;;2.90;94.60;;;;;;5033484;28;20056;-76
2022/12/11 10:43:17;;;;;;;34.13;13.18;;;3.00;94.50;;;;;;5032079;28;20511;-76
2022/12/11 10:45:53;;;;;;;38.67;13.95;;;3.10;94.30;;;;;;5031767;28;20040;-76
2022/12/11 10:48:19;;;;;;;35.97;14.52;;;3.00;94.20;;;;;;5032749;28;20035;-69
2022/12/11 10:50:59;;;;;;;35.28;15.00;;;3.10;94.20;;;;;;5032737;28;20033;-73
2022/12/11 10:53:25;;;;;;;42.15;13.90;;;3.20;94.50;;;;;;5032099;28;20324;-75
2022/12/11 10:55:52;;;;;;;40.33;13.23;;;3.10;94.10;;;;;;5033712;28;20022;-73
2022/12/11 10:58:24;;;;;;;38.28;14.18;;;3.10;94.00;;;;;;5031776;28;20095;-75
2022/12/11 11:01:08;;;;;;;29.52;13.20;;;3.20;94.00;;;;;;5031738;28;20029;-74
2022/12/11 11:03:39;;;;;;;32.10;13.50;;;3.40;94.00;;;;;;5031630;28;20037;-75
2022/12/11 11:06:18;;;;;;;32.63;13.55;;;3.40;93.80;;;;;;5032926;28;20052;-77
2022/12/11 11:08:51;;;;;;;32.70;13.95;;;3.30;93.50;;;;;;5032721;28;20491;-74
2022/12/11 11:11:25;;;;;;;35.00;14.57;;;3.30;93.50;;;;;;5030374;28;20325;-75
2022/12/11 11:14:03;;;;;;;32.00;14.05;;;3.30;93.50;;;;;;5032913;28;20029;-75
2022/12/11 11:16:29;;;;;;;29.60;12.93;;;3.40;93.50;;;;;;5032663;28;20374;-74
2022/12/11 11:18:56;;;;;;;27.00;11.93;;;3.30;93.20;;;;;;5032427;28;20033;-73
2022/12/11 11:21:25;;;;;;;31.05;12.52;;;3.40;93.30;;;;;;5031348;28;20033;-75
2022/12/11 11:23:53;;;;;;;30.33;12.02;;;3.50;93.20;;;;;;5032238;28;20025;-74
2022/12/11 11:26:21;;;;;;;27.10;11.60;;;3.60;92.90;;;;;;5032344;28;20021;-72
2022/12/11 11:28:48;;;;;;;26.77;11.45;;;3.60;92.90;;;;;;5032401;28;20021;-72
2022/12/11 11:31:16;;;;;;;25.00;12.18;;;4.00;93.20;;;;;;5031227;28;20543;-72
2022/12/11 11:34:05;;;;;;;26.98;11.10;;;4.40;92.70;;;;;;5031022;28;20038;-74
2022/12/11 11:36:34;;;;;;;23.55;10.85;;;5.10;93.10;;;;;;5032336;28;20041;-75
2022/12/11 11:39:37;;;;;;;24.48;11.43;;;5.40;91.30;;;;;;5032152;28;20029;-73
2022/12/11 11:42:28;;;;;;;24.00;11.23;;;5.30;90.80;;;;;;5025049;28;20025;-73
2022/12/11 11:45:08;;;;;;;24.40;10.90;;;5.40;90.90;;;;;;5030922;28;20091;-74
2022/12/11 11:47:40;;;;;;;23.23;10.90;;;5.50;90.70;;;;;;5032076;28;20091;-71
2022/12/11 11:50:13;;;;;;;36.47;16.67;;;5.50;90.70;;;;;;5031501;28;20056;-71
2022/12/11 11:52:44;;;;;;;21.23;10.02;;;5.50;90.80;;;;;;5032163;28;20068;-71
2022/12/11 11:55:15;;;;;;;22.77;10.02;;;5.50;90.40;;;;;;5031865;28;20056;-71
2022/12/11 11:58:15;;;;;;;24.52;10.93;;;5.40;90.00;;;;;;5030603;28;20064;-72
2022/12/11 12:00:41;;;;;;;23.33;9.90;;;5.30;90.00;;;;;;5031588;28;20053;-73
2022/12/11 12:03:17;;;;;;;28.27;12.23;;;5.30;90.20;;;;;;5031726;28;20057;-72
2022/12/11 12:06:17;;;;;;;27.35;12.70;;;5.30;90.50;;;;;;5030607;28;20136;-72
2022/12/11 12:08:58;;;;;;;22.17;10.25;;;5.40;90.40;;;;;;5031674;28;20032;-72
2022/12/11 12:11:46;;;;;;;27.83;12.57;;;5.40;90.20;;;;;;5031569;28;20041;-73
2022/12/11 12:14:12;;;;;;;27.30;14.07;;;5.40;90.80;;;;;;5031391;28;20095;-74
2022/12/11 12:16:49;;;;;;;26.65;11.85;;;5.40;90.60;;;;;;5032098;28;20030;-72
2022/12/11 12:19:39;;;;;;;26.85;12.38;;;5.40;90.40;;;;;;5030642;28;20048;-72
2022/12/11 12:22:39;;;;;;;29.65;12.93;;;5.40;90.50;;;;;;5031466;28;20033;-73
2022/12/11 12:25:30;;;;;;;27.60;12.55;;;5.40;90.60;;;;;;5024581;28;20042;-74
2022/12/11 12:28:24;;;;;;;24.33;11.18;;;5.40;90.50;;;;;;5031745;28;20419;-74
2022/12/11 12:31:44;;;;;;;24.23;11.70;;;5.40;90.40;;;;;;5031686;28;20340;-74
2022/12/11 12:34:28;;;;;;;23.55;11.15;;;5.40;90.20;;;;;;5021935;28;20033;-75
2022/12/11 12:36:53;;;;;;;29.67;11.52;;;5.30;90.00;;;;;;5030825;28;20460;-76
2022/12/11 12:39:53;;;;;;;24.95;11.85;;;5.20;90.30;;;;;;5031764;28;20029;-75
2022/12/11 12:42:37;;;;;;;31.30;12.15;;;5.20;90.60;;;;;;5031226;28;20143;-76
2022/12/11 12:45:11;;;;;;;32.53;11.15;;;5.10;90.30;;;;;;5031205;28;20087;-77
2022/12/11 12:47:39;;;;;;;25.90;11.85;;;5.00;90.30;;;;;;5030863;28;20029;-75
2022/12/11 12:50:15;;;;;;;28.27;11.10;;;4.80;90.00;;;;;;5031038;28;20022;-71
2022/12/11 12:52:42;;;;;;;28.95;11.32;;;4.70;90.20;;;;;;5031590;28;20236;-76
2022/12/11 12:55:30;;;;;;;25.13;11.52;;;4.60;90.40;;;;;;5030917;28;20091;-75
2022/12/11 12:58:06;;;;;;;28.00;10.45;;;4.50;90.30;;;;;;5030980;28;20033;-71
2022/12/11 13:00:38;;;;;;;28.77;11.07;;;4.40;90.70;;;;;;5030996;28;20110;-74
2022/12/11 13:03:19;;;;;;;24.23;10.90;;;4.40;91.10;;;;;;5030964;28;20029;-74
2022/12/11 13:05:55;;;;;;;28.13;11.90;;;4.30;90.80;;;;;;5031305;28;20045;-73